Time;durP1;ratioP1;P1;durP2;ratioP2;P2;SDS_P1;SDS_P2;PMS_P1;PMS_P2;Temp;Humidity;BMP_temperature;BMP_pressure;BME280_temperature;BME280_humidity;BME280_pressure;Samples;Min_cycle;Max_cycle;Signal;HPM_P1;HPM_P2
2022/08/22 00:01:09;;;;;;;7.97;5.03;;;27.30;99.90;;;;;;4198935;28;20044;-68
2022/08/22 00:03:45;;;;;;;8.95;5.20;;;27.40;99.90;;;;;;4194093;28;20463;-67
2022/08/22 00:06:15;;;;;;;9.90;4.78;;;27.40;99.90;;;;;;4217732;28;20046;-67
2022/08/22 00:08:44;;;;;;;8.52;4.63;;;27.40;99.90;;;;;;4225875;28;20101;-66
2022/08/22 00:11:13;;;;;;;8.75;4.60;;;27.40;99.90;;;;;;4186518;28;20048;-67
2022/08/22 00:13:47;;;;;;;8.43;5.35;;;27.50;99.90;;;;;;4209827;28;20113;-68
2022/08/22 00:16:19;;;;;;;9.50;4.93;;;27.50;99.90;;;;;;4209766;28;20087;-67
2022/08/22 00:18:50;;;;;;;7.72;5.00;;;27.50;99.90;;;;;;4204744;28;20051;-67
2022/08/22 00:21:17;;;;;;;8.43;5.00;;;27.50;99.90;;;;;;4187713;28;20064;-67
2022/08/22 00:23:29;;;;;;;7.35;4.57;;;27.60;99.90;;;;;;4195764;28;20646;-67
2022/08/22 00:25:54;;;;;;;7.07;4.40;;;27.60;99.90;;;;;;4202818;28;20649;-67
2022/08/22 00:28:22;;;;;;;8.93;4.93;;;27.60;99.90;;;;;;4193314;28;20063;-66
2022/08/22 00:30:29;;;;;;;8.75;5.10;;;27.70;99.90;;;;;;4197290;28;20075;-67
2022/08/22 00:32:44;;;;;;;9.48;4.70;;;27.70;99.90;;;;;;4210145;28;20080;-68
2022/08/22 00:35:14;;;;;;;6.82;5.00;;;27.80;99.90;;;;;;4208964;28;20060;-67
2022/08/22 00:37:34;;;;;;;10.68;5.43;;;27.80;99.90;;;;;;4193346;28;20552;-66
2022/08/22 00:39:52;;;;;;;9.05;5.38;;;27.90;99.90;;;;;;4193173;28;20120;-67
2022/08/22 00:42:29;;;;;;;8.00;5.78;;;28.00;99.90;;;;;;4208036;28;20732;-67
2022/08/22 00:45:07;;;;;;;10.98;5.32;;;28.00;99.90;;;;;;4209316;28;20079;-67
2022/08/22 00:47:38;;;;;;;9.82;5.53;;;28.00;99.90;;;;;;4206984;28;20044;-66
2022/08/22 00:50:22;;;;;;;13.80;6.22;;;28.10;99.90;;;;;;4208701;28;20040;-66
2022/08/22 00:52:51;;;;;;;9.50;5.32;;;28.10;99.90;;;;;;4208203;28;20067;-67
2022/08/22 00:55:32;;;;;;;11.20;6.05;;;28.10;99.90;;;;;;4207963;28;20078;-66
2022/08/22 00:58:09;;;;;;;9.68;5.63;;;28.20;99.90;;;;;;4208009;28;20631;-66
2022/08/22 01:00:34;;;;;;;10.93;5.82;;;28.10;99.90;;;;;;4206803;28;20482;-66
2022/08/22 01:03:18;;;;;;;10.48;5.40;;;28.20;99.90;;;;;;4193426;28;20690;-66
2022/08/22 01:05:34;;;;;;;;;;;28.20;99.90;;;;;;4212549;28;20076;-66
2022/08/22 01:08:02;;;;;;;8.50;5.80;;;28.30;99.90;;;;;;4212068;28;19924;-67
2022/08/22 01:10:25;;;;;;;7.78;5.47;;;28.40;99.90;;;;;;4210135;28;20770;-66
2022/08/22 01:12:57;;;;;;;13.60;5.88;;;28.50;99.90;;;;;;4206360;28;20049;-68
2022/08/22 01:15:11;;;;;;;12.00;6.10;;;28.60;99.90;;;;;;4209350;28;20307;-67
2022/08/22 01:17:47;;;;;;;10.60;5.97;;;28.60;99.90;;;;;;4223903;28;20157;-67
2022/08/22 01:20:32;;;;;;;7.88;5.97;;;28.60;99.90;;;;;;4209065;28;20322;-67
2022/08/22 01:23:00;;;;;;;13.52;6.25;;;28.80;99.90;;;;;;4211531;28;20506;-68
2022/08/22 01:25:36;;;;;;;10.02;6.75;;;28.90;99.90;;;;;;4211430;28;20071;-67
2022/08/22 01:28:26;;;;;;;12.57;5.68;;;28.90;99.90;;;;;;4204175;28;20067;-67
2022/08/22 01:30:54;;;;;;;13.48;6.60;;;29.00;99.90;;;;;;4194955;28;20051;-67
2022/08/22 01:33:15;;;;;;;11.15;6.05;;;29.10;99.90;;;;;;4205136;28;20364;-67
2022/08/22 01:35:52;;;;;;;8.98;6.18;;;29.10;99.90;;;;;;4198990;28;20110;-67
2022/08/22 01:38:12;;;;;;;10.20;6.60;;;29.20;99.90;;;;;;4190251;28;20055;-67
2022/08/22 01:40:59;;;;;;;12.70;6.55;;;29.30;99.90;;;;;;4159094;28;20112;-66
2022/08/22 01:43:29;;;;;;;9.05;5.78;;;29.40;99.90;;;;;;4204571;28;20398;-67
2022/08/22 01:46:18;;;;;;;9.27;6.03;;;29.30;99.90;;;;;;4176416;28;20187;-67
2022/08/22 01:48:43;;;;;;;10.27;6.10;;;29.30;99.90;;;;;;4175833;28;20608;-67
2022/08/22 01:50:56;;;;;;;14.52;6.22;;;29.30;99.90;;;;;;4175046;28;20211;-67
2022/08/22 01:53:30;;;;;;;9.50;5.43;;;29.30;99.90;;;;;;4161065;28;20427;-67
2022/08/22 01:55:46;;;;;;;13.23;5.97;;;29.30;99.90;;;;;;4175853;28;20871;-67
2022/08/22 01:57:56;;;;;;;8.55;5.70;;;29.30;99.90;;;;;;4186295;28;20068;-67
2022/08/22 02:00:08;;;;;;;10.02;5.90;;;29.30;99.90;;;;;;4176121;28;20048;-67
2022/08/22 02:02:43;;;;;;;10.35;6.13;;;29.40;99.90;;;;;;4153127;28;20144;-67
2022/08/22 02:05:24;;;;;;;9.40;5.78;;;29.40;99.90;;;;;;4143850;28;20053;-67
2022/08/22 02:07:54;;;;;;;8.38;5.88;;;29.50;99.90;;;;;;4192240;28;20072;-67
2022/08/22 02:10:17;;;;;;;8.88;5.55;;;29.60;99.90;;;;;;4193015;28;20091;-67
2022/08/22 02:12:47;;;;;;;7.75;5.45;;;29.60;99.90;;;;;;4176198;28;20053;-67
2022/08/22 02:15:16;;;;;;;9.57;5.38;;;29.70;99.90;;;;;;4192509;28;20052;-66
2022/08/22 02:17:28;;;;;;;10.30;5.35;;;29.80;99.90;;;;;;4203135;28;20406;-67
2022/08/22 02:19:38;;;;;;;8.15;5.10;;;29.80;99.90;;;;;;4211871;28;20052;-67
2022/08/22 02:22:05;;;;;;;8.18;5.00;;;29.80;99.90;;;;;;4211648;28;20040;-67
2022/08/22 02:24:24;;;;;;;9.30;5.10;;;30.00;99.90;;;;;;4210605;28;20048;-67
2022/08/22 02:26:42;;;;;;;9.98;5.30;;;30.00;99.90;;;;;;4211566;28;20068;-67
2022/08/22 02:29:07;;;;;;;9.90;5.75;;;30.10;99.90;;;;;;4195543;28;20086;-67
2022/08/22 02:31:38;;;;;;;7.57;5.43;;;30.10;99.90;;;;;;4211392;28;20131;-67
2022/08/22 02:33:53;;;;;;;10.20;5.05;;;30.10;99.90;;;;;;4209245;28;20060;-67
2022/08/22 02:36:27;;;;;;;9.57;5.18;;;30.20;99.90;;;;;;4207828;28;20040;-67
2022/08/22 02:39:03;;;;;;;9.93;5.05;;;30.30;99.90;;;;;;4192038;28;20080;-68
2022/08/22 02:41:25;;;;;;;7.72;5.00;;;30.40;99.90;;;;;;4211325;28;20097;-68
2022/08/22 02:43:54;;;;;;;7.30;4.60;;;30.50;99.90;;;;;;4210016;28;20376;-67
2022/08/22 02:46:22;;;;;;;7.90;5.63;;;30.50;99.90;;;;;;4211178;28;20052;-67
2022/08/22 02:48:48;;;;;;;6.15;4.65;;;30.60;99.90;;;;;;4211061;28;20040;-67
2022/08/22 02:51:34;;;;;;;10.20;4.30;;;30.60;99.90;;;;;;4209983;28;20045;-67
2022/08/22 02:53:59;;;;;;;10.60;4.70;;;30.60;99.90;;;;;;4211261;28;20071;-67
2022/08/22 02:56:27;;;;;;;6.65;4.68;;;30.70;99.90;;;;;;4211253;28;20558;-67
2022/08/22 02:58:49;;;;;;;8.90;5.35;;;30.80;99.90;;;;;;4209940;28;20195;-67
2022/08/22 03:01:34;;;;;;;10.85;5.18;;;30.90;99.90;;;;;;4211423;28;20052;-68
2022/08/22 03:03:42;;;;;;;10.77;5.68;;;30.90;99.90;;;;;;4193373;28;20761;-66
2022/08/22 03:05:57;;;;;;;10.15;5.38;;;30.90;99.90;;;;;;4194463;28;20049;-65
2022/08/22 03:08:24;;;;;;;10.98;5.35;;;31.00;99.90;;;;;;4198714;28;20040;-66
2022/08/22 03:10:35;;;;;;;9.00;6.13;;;31.00;99.90;;;;;;4211179;28;20044;-65
2022/08/22 03:12:57;;;;;;;10.18;5.90;;;31.00;99.90;;;;;;4211199;28;20074;-65
2022/08/22 03:15:33;;;;;;;11.68;6.20;;;31.10;99.90;;;;;;4192119;28;20096;-65
2022/08/22 03:17:52;;;;;;;8.95;6.10;;;31.10;99.90;;;;;;4210319;28;20055;-65
2022/08/22 03:20:11;;;;;;;8.98;6.25;;;31.20;99.90;;;;;;4211057;28;20101;-66
2022/08/22 03:22:33;;;;;;;11.30;6.50;;;31.20;99.90;;;;;;4210766;28;20113;-65
2022/08/22 03:25:09;;;;;;;10.63;6.47;;;31.10;99.90;;;;;;4208519;28;20059;-65
2022/08/22 03:27:23;;;;;;;11.43;6.88;;;31.20;99.90;;;;;;4214004;28;20048;-65
2022/08/22 03:29:43;;;;;;;8.32;6.05;;;31.20;99.90;;;;;;4204758;28;20586;-65
2022/08/22 03:32:08;;;;;;;14.35;6.93;;;31.30;99.90;;;;;;4198634;28;20059;-64
2022/08/22 03:34:31;;;;;;;10.80;6.68;;;31.30;99.90;;;;;;4211207;28;20147;-65
2022/08/22 03:36:37;;;;;;;13.23;6.70;;;31.30;99.90;;;;;;4226759;28;20560;-65
2022/08/22 03:38:51;;;;;;;10.48;6.82;;;31.50;99.90;;;;;;4210906;28;20098;-66
2022/08/22 03:41:25;;;;;;;9.75;6.88;;;31.50;99.90;;;;;;4210674;28;20503;-65
2022/08/22 03:43:50;;;;;;;17.40;7.80;;;31.50;99.90;;;;;;4209656;28;20054;-66
2022/08/22 03:46:26;;;;;;;13.32;6.82;;;31.50;99.90;;;;;;4209441;28;20052;-66
2022/08/22 03:49:03;;;;;;;10.45;6.28;;;31.60;99.90;;;;;;4209608;28;20569;-66
2022/08/22 03:51:30;;;;;;;13.95;6.35;;;31.60;99.90;;;;;;4210978;28;20046;-67
2022/08/22 09:49:42;;;;;;;10.88;4.68;;;31.40;99.90;;;;;;4210097;28;20040;-74
2022/08/22 09:52:08;;;;;;;7.85;4.80;;;31.40;99.90;;;;;;4209423;28;20047;-74
2022/08/22 09:54:42;;;;;;;8.52;4.13;;;31.40;99.90;;;;;;4208983;28;20052;-73
2022/08/22 09:57:25;;;;;;;8.07;3.95;;;31.40;99.90;;;;;;4224202;28;20044;-73
2022/08/22 09:59:55;;;;;;;4.97;4.03;;;31.40;99.90;;;;;;4210620;28;20044;-74
2022/08/22 10:02:27;;;;;;;10.75;4.53;;;31.30;99.90;;;;;;4208088;28;20036;-75
2022/08/22 10:04:58;;;;;;;6.30;3.92;;;31.30;99.90;;;;;;4211712;28;20051;-74
2022/08/22 10:07:25;;;;;;;;;;;31.30;99.90;;;;;;4212456;28;20581;-74
2022/08/22 10:10:02;;;;;;;7.13;3.90;;;31.30;99.90;;;;;;4211309;28;19969;-73
2022/08/22 10:12:14;;;;;;;6.97;3.25;;;31.30;99.90;;;;;;4211878;28;20036;-74
2022/08/22 10:14:23;;;;;;;5.80;3.28;;;31.20;99.90;;;;;;4202316;28;20040;-73
2022/08/22 10:16:52;;;;;;;5.85;3.30;;;31.30;99.90;;;;;;4211437;28;20549;-73
2022/08/22 10:19:21;;;;;;;7.95;3.08;;;31.20;99.90;;;;;;4209903;28;20082;-72
2022/08/22 10:21:44;;;;;;;5.03;3.20;;;31.20;99.90;;;;;;4191840;28;20483;-72
2022/08/22 10:24:17;;;;;;;5.80;3.20;;;31.20;99.90;;;;;;4192622;28;20049;-72
2022/08/22 10:26:50;;;;;;;8.02;3.53;;;31.20;99.90;;;;;;4208973;28;20410;-72
2022/08/22 10:29:29;;;;;;;5.38;3.40;;;31.20;99.90;;;;;;4210544;28;20071;-72
2022/08/22 10:31:53;;;;;;;8.75;3.50;;;31.10;99.90;;;;;;4225152;28;20075;-74
2022/08/22 10:34:15;;;;;;;7.05;3.15;;;31.10;99.90;;;;;;4209192;28;20097;-72
2022/08/22 10:36:30;;;;;;;6.88;3.60;;;31.10;99.90;;;;;;4208888;28;20101;-73
2022/08/22 10:38:47;;;;;;;6.50;3.95;;;31.10;99.90;;;;;;4208784;28;20082;-72
2022/08/22 10:41:17;;;;;;;8.85;5.07;;;31.00;99.90;;;;;;4209382;28;20044;-73
2022/08/22 10:43:43;;;;;;;9.93;6.45;;;31.00;99.90;;;;;;4207217;28;20421;-74
2022/08/22 10:45:52;;;;;;;12.45;7.50;;;30.90;99.90;;;;;;4210115;28;20119;-73
2022/08/22 10:48:29;;;;;;;10.45;7.75;;;30.90;99.90;;;;;;4210162;28;20058;-74
2022/08/22 10:50:46;;;;;;;9.90;6.90;;;30.90;99.90;;;;;;4208106;28;20478;-74
2022/08/22 10:53:28;;;;;;;7.72;5.03;;;30.80;99.90;;;;;;4209781;28;20044;-74
2022/08/22 10:55:25;;;;;;;6.80;3.70;;;30.80;99.90;;;;;;4209453;28;20101;-74
2022/08/22 10:57:47;;;;;;;7.18;3.70;;;30.80;99.90;;;;;;4208938;28;20090;-76
2022/08/22 11:00:13;;;;;;;8.43;3.58;;;30.70;99.90;;;;;;4224981;28;20751;-73
2022/08/22 11:03:00;;;;;;;6.07;3.15;;;30.70;99.90;;;;;;4209826;28;20079;-72
2022/08/22 11:05:30;;;;;;;6.68;3.50;;;30.60;99.90;;;;;;4209888;28;20044;-72
2022/08/22 11:08:06;;;;;;;9.20;3.25;;;30.50;99.90;;;;;;4209314;28;20047;-72
2022/08/22 11:10:52;;;;;;;13.82;3.40;;;30.50;99.90;;;;;;4208264;28;20411;-75
2022/08/22 11:13:16;;;;;;;;;;;30.50;99.90;;;;;;4209606;28;20050;-75
2022/08/22 11:15:52;;;;;;;6.25;3.60;;;30.40;99.90;;;;;;4204777;28;19932;-74
2022/08/22 11:18:21;;;;;;;10.02;4.30;;;30.40;99.90;;;;;;4206346;28;20068;-74
2022/08/22 11:20:58;;;;;;;10.73;4.00;;;30.40;99.90;;;;;;4211117;28;20054;-74
2022/08/22 11:23:27;;;;;;;8.60;4.70;;;30.40;99.90;;;;;;4211400;28;20530;-74
2022/08/22 11:26:12;;;;;;;11.27;5.53;;;30.40;99.90;;;;;;4212842;28;20751;-75
2022/08/22 11:28:59;;;;;;;12.48;7.47;;;30.40;99.90;;;;;;4208482;28;20554;-75
2022/08/22 11:31:51;;;;;;;15.07;7.30;;;30.30;99.90;;;;;;4219882;27;20035;-72
2022/08/22 11:34:08;;;;;;;11.55;6.68;;;30.30;99.90;;;;;;4206341;28;20070;-73
2022/08/22 11:36:36;;;;;;;8.00;5.40;;;30.20;99.90;;;;;;4206746;28;20795;-73
2022/08/22 11:39:12;;;;;;;9.15;4.72;;;30.10;99.90;;;;;;4222769;28;20075;-73
2022/08/22 11:41:45;;;;;;;8.55;4.55;;;30.10;99.90;;;;;;4207503;28;20162;-73
2022/08/22 11:44:20;;;;;;;11.30;4.20;;;30.10;99.90;;;;;;4208251;28;20062;-73
2022/08/22 11:46:47;;;;;;;7.68;4.22;;;30.20;99.90;;;;;;4206460;28;20047;-74
2022/08/22 11:49:23;;;;;;;9.48;4.18;;;30.20;99.90;;;;;;4190391;28;20051;-73
2022/08/22 11:51:56;;;;;;;6.75;4.25;;;30.10;99.90;;;;;;4206622;28;20048;-74
2022/08/22 11:54:10;;;;;;;9.18;4.18;;;30.10;99.90;;;;;;4205071;28;20048;-72
2022/08/22 11:56:34;;;;;;;6.43;4.20;;;30.00;99.90;;;;;;4207834;28;20044;-74
2022/08/22 11:59:04;;;;;;;6.82;4.28;;;30.00;99.90;;;;;;4209137;28;20055;-72
2022/08/22 12:01:31;;;;;;;8.82;4.20;;;30.00;99.90;;;;;;4208716;28;20521;-72
2022/08/22 12:03:51;;;;;;;7.72;4.35;;;30.00;99.90;;;;;;4207717;28;20897;-71
2022/08/22 12:06:25;;;;;;;10.50;4.35;;;30.00;99.90;;;;;;4207568;28;20040;-73
2022/08/22 12:09:02;;;;;;;6.93;4.13;;;30.00;99.90;;;;;;4207614;28;20135;-72
2022/08/22 12:11:30;;;;;;;9.05;4.45;;;30.00;99.90;;;;;;4207174;28;20048;-72
2022/08/22 12:13:57;;;;;;;7.68;4.30;;;29.80;99.90;;;;;;4189505;28;20048;-73
2022/08/22 12:16:27;;;;;;;15.68;4.72;;;29.80;99.90;;;;;;4206134;28;20620;-73
2022/08/22 12:18:49;;;;;;;13.45;4.78;;;29.80;99.90;;;;;;4206346;28;20036;-73
2022/08/22 12:21:18;;;;;;;8.52;5.32;;;29.80;99.90;;;;;;4206711;28;20044;-72
2022/08/22 12:23:38;;;;;;;9.57;5.15;;;29.80;99.90;;;;;;4207314;28;20730;-72
2022/08/22 12:26:10;;;;;;;11.07;5.30;;;29.80;99.90;;;;;;4206241;28;20067;-73
2022/08/22 12:28:48;;;;;;;10.75;5.30;;;29.70;99.90;;;;;;4207292;28;20040;-73
2022/08/22 12:31:11;;;;;;;8.77;4.93;;;29.70;99.90;;;;;;4207682;28;20040;-73
2022/08/22 12:33:36;;;;;;;8.68;5.20;;;29.70;99.90;;;;;;4207266;28;20048;-73
2022/08/22 12:36:13;;;;;;;10.52;4.78;;;29.70;99.90;;;;;;4207138;28;20510;-73
2022/08/22 12:38:45;;;;;;;7.47;4.72;;;29.70;99.90;;;;;;4206285;28;20047;-73
2022/08/22 12:41:23;;;;;;;9.75;5.22;;;29.70;99.90;;;;;;4205756;28;20044;-73
2022/08/22 12:44:09;;;;;;;8.98;4.60;;;29.70;99.90;;;;;;4206877;28;20096;-73
2022/08/22 12:46:58;;;;;;;7.32;5.05;;;29.70;99.90;;;;;;4205867;28;20040;-73
2022/08/22 12:49:20;;;;;;;7.55;4.57;;;29.70;99.90;;;;;;4206247;28;20043;-74
2022/08/22 12:52:03;;;;;;;10.30;5.53;;;29.60;99.90;;;;;;4205818;28;20036;-73
2022/08/22 12:54:32;;;;;;;12.27;5.45;;;29.60;99.90;;;;;;4206647;28;20056;-73
2022/08/22 12:57:08;;;;;;;9.52;4.90;;;29.50;99.90;;;;;;4206747;28;20051;-72
2022/08/22 12:59:38;;;;;;;8.50;5.38;;;29.60;99.90;;;;;;4207535;28;20590;-73
2022/08/22 13:01:45;;;;;;;8.80;5.22;;;29.50;99.90;;;;;;4208189;28;20811;-73
2022/08/22 13:04:01;;;;;;;6.43;4.75;;;29.50;99.90;;;;;;4206104;28;20472;-74
2022/08/22 13:06:45;;;;;;;7.55;4.95;;;29.50;99.90;;;;;;4201919;28;20062;-73
2022/08/22 13:08:52;;;;;;;9.55;5.55;;;29.40;99.90;;;;;;4205633;28;20052;-73
2022/08/22 13:11:10;;;;;;;11.45;5.35;;;29.40;99.90;;;;;;4193247;28;20049;-72
2022/08/22 13:13:30;;;;;;;9.18;5.43;;;29.50;99.90;;;;;;4192998;28;20048;-73
2022/08/22 13:15:53;;;;;;;9.63;5.55;;;29.50;99.90;;;;;;4189657;28;20677;-72
2022/08/22 13:17:59;;;;;;;7.20;5.20;;;29.50;99.90;;;;;;4205759;28;20548;-72
2022/08/22 13:20:33;;;;;;;10.00;5.88;;;29.40;99.90;;;;;;4205433;28;20043;-73
2022/08/22 13:22:41;;;;;;;9.90;5.03;;;29.50;99.90;;;;;;4208273;28;20437;-73
2022/08/22 13:24:50;;;;;;;11.85;5.15;;;29.50;99.90;;;;;;4205485;28;20051;-73
2022/08/22 13:26:59;;;;;;;13.95;6.28;;;29.40;99.90;;;;;;4208516;28;20040;-73
2022/08/22 13:29:16;;;;;;;9.20;6.05;;;29.40;99.90;;;;;;4205839;28;20794;-73
2022/08/22 13:31:37;;;;;;;9.70;6.03;;;29.40;99.90;;;;;;4208010;28;20040;-73
2022/08/22 13:33:46;;;;;;;9.43;5.63;;;29.40;99.90;;;;;;4206928;28;20040;-73
2022/08/22 13:35:56;;;;;;;;;;;29.30;99.90;;;;;;4207101;28;20784;-73
2022/08/22 13:38:15;;;;;;;10.65;6.20;;;29.30;99.90;;;;;;4208550;28;19970;-73
2022/08/22 13:40:31;;;;;;;11.85;5.97;;;29.30;99.90;;;;;;4208489;28;20767;-72
2022/08/22 13:42:45;;;;;;;7.60;6.22;;;29.30;99.90;;;;;;4221527;28;20061;-73
2022/08/22 13:44:54;;;;;;;10.70;6.30;;;29.30;99.90;;;;;;4207337;28;20184;-73
2022/08/22 13:47:09;;;;;;;11.15;6.50;;;29.30;99.90;;;;;;4206637;28;20051;-73
2022/08/22 13:49:19;;;;;;;11.25;6.78;;;29.30;99.90;;;;;;4206260;28;20660;-72
2022/08/22 13:51:28;;;;;;;9.07;6.20;;;29.30;99.90;;;;;;4208345;28;20044;-73
2022/08/22 13:53:45;;;;;;;8.90;5.80;;;29.30;99.90;;;;;;4206222;28;20040;-73
2022/08/22 13:56:09;;;;;;;10.85;6.35;;;29.20;99.90;;;;;;4206242;28;20044;-73
2022/08/22 13:58:37;;;;;;;14.25;6.85;;;29.30;99.90;;;;;;4206443;28;20075;-73
2022/08/22 14:01:15;;;;;;;10.93;5.93;;;29.30;99.90;;;;;;4207163;28;20090;-73
2022/08/22 14:03:55;;;;;;;11.23;5.70;;;29.30;99.90;;;;;;4207611;28;20044;-73
2022/08/22 14:06:01;;;;;;;11.52;5.93;;;29.20;99.90;;;;;;4205536;28;20052;-73
2022/08/22 14:08:31;;;;;;;11.15;6.25;;;29.20;99.90;;;;;;4190084;28;20071;-73
2022/08/22 14:10:49;;;;;;;13.93;6.37;;;29.20;99.90;;;;;;4204211;28;20079;-73
2022/08/22 14:13:30;;;;;;;9.73;5.47;;;29.20;99.90;;;;;;4205903;28;20040;-73
2022/08/22 14:15:35;;;;;;;10.23;5.55;;;29.20;99.90;;;;;;4220745;28;20105;-73
2022/08/22 14:17:47;;;;;;;;;;;29.20;99.90;;;;;;4208841;28;20040;-73
2022/08/22 14:20:12;;;;;;;11.63;6.10;;;29.20;99.90;;;;;;4205025;28;20404;-73
2022/08/22 14:22:35;;;;;;;8.65;6.25;;;29.20;99.90;;;;;;4206220;28;20055;-73
2022/08/22 14:24:48;;;;;;;11.63;5.75;;;29.20;99.90;;;;;;4188712;28;20046;-73
2022/08/22 14:27:04;;;;;;;10.57;5.75;;;29.20;99.90;;;;;;4201790;28;20102;-73
2022/08/22 14:29:12;;;;;;;11.40;5.80;;;29.20;99.90;;;;;;4207666;28;20117;-73
2022/08/22 14:31:23;;;;;;;8.82;5.97;;;29.20;99.90;;;;;;4206418;28;20046;-73
2022/08/22 14:33:32;;;;;;;7.57;6.10;;;29.20;99.90;;;;;;4190655;28;20040;-73
2022/08/22 14:35:41;;;;;;;13.10;6.22;;;29.20;99.90;;;;;;4205412;28;20101;-73
2022/08/22 14:38:12;;;;;;;12.23;5.90;;;29.20;99.90;;;;;;4206569;28;20048;-73
2022/08/22 14:40:32;;;;;;;8.48;6.03;;;29.20;99.90;;;;;;4204255;28;20134;-73
2022/08/22 14:42:45;;;;;;;9.02;5.78;;;29.20;99.90;;;;;;4206468;28;20051;-73
2022/08/22 14:45:16;;;;;;;11.00;6.20;;;29.20;99.90;;;;;;4207882;28;20044;-73
2022/08/22 14:47:39;;;;;;;9.27;5.78;;;29.20;99.90;;;;;;4207043;28;20048;-72
2022/08/22 14:50:10;;;;;;;11.50;6.88;;;29.10;99.90;;;;;;4207154;28;20102;-73
2022/08/22 14:52:31;;;;;;;13.45;8.48;;;29.10;99.90;;;;;;4187303;28;20053;-73
2022/08/22 14:54:36;;;;;;;17.42;11.00;;;29.10;99.90;;;;;;4207164;28;20075;-73
2022/08/22 14:56:40;;;;;;;16.35;10.25;;;29.10;99.90;;;;;;4208100;28;20098;-73
2022/08/22 14:59:01;;;;;;;11.88;7.97;;;29.10;99.90;;;;;;4207774;28;20040;-73
2022/08/22 15:01:10;;;;;;;11.73;7.25;;;29.10;99.90;;;;;;4205902;28;20487;-72
2022/08/22 15:03:33;;;;;;;17.15;7.68;;;29.10;99.90;;;;;;4206017;28;20739;-73
2022/08/22 15:05:45;;;;;;;11.88;7.07;;;29.10;99.90;;;;;;4204938;28;20043;-73
2022/08/22 15:07:58;;;;;;;10.32;6.68;;;29.10;99.90;;;;;;4207579;28;20425;-73
2022/08/22 15:10:19;;;;;;;14.00;6.68;;;29.00;99.90;;;;;;4206647;28;20698;-73
2022/08/22 15:12:37;;;;;;;11.57;6.63;;;29.10;99.90;;;;;;4204413;28;20040;-73
2022/08/22 15:14:46;;;;;;;11.30;6.55;;;29.00;99.90;;;;;;4206182;28;20525;-73
2022/08/22 15:17:00;;;;;;;10.63;6.72;;;29.00;99.90;;;;;;4204268;28;20040;-73
2022/08/22 15:19:25;;;;;;;10.00;6.80;;;29.00;99.90;;;;;;4207548;28;20054;-73
2022/08/22 15:21:32;;;;;;;12.10;6.70;;;29.00;99.90;;;;;;4206246;28;20055;-73
2022/08/22 15:23:43;;;;;;;11.48;7.03;;;28.90;99.90;;;;;;4206728;28;20665;-73
2022/08/22 15:25:58;;;;;;;10.43;6.07;;;28.90;99.90;;;;;;4204931;28;20048;-73
2022/08/22 15:28:16;;;;;;;14.30;6.45;;;29.00;99.90;;;;;;4205170;28;20101;-73
2022/08/22 15:30:37;;;;;;;9.07;6.63;;;29.00;99.90;;;;;;4205396;28;20113;-73
2022/08/22 15:32:49;;;;;;;8.77;6.30;;;28.90;99.90;;;;;;4207026;28;20040;-73
2022/08/22 15:35:02;;;;;;;11.05;6.30;;;28.90;99.90;;;;;;4203104;28;20047;-73
2022/08/22 15:37:29;;;;;;;9.80;6.82;;;28.90;99.90;;;;;;4190038;28;20047;-73
2022/08/22 15:40:03;;;;;;;12.93;6.78;;;28.90;99.90;;;;;;4217415;28;20078;-73
2022/08/22 15:42:10;;;;;;;10.98;6.40;;;28.90;99.90;;;;;;4203274;28;20051;-73
2022/08/22 15:44:29;;;;;;;12.73;6.43;;;28.90;99.90;;;;;;4207435;28;20052;-73
2022/08/22 15:46:42;;;;;;;10.98;6.43;;;28.90;99.90;;;;;;4206782;28;20050;-73
2022/08/22 15:49:03;;;;;;;10.82;6.50;;;28.90;99.90;;;;;;4207434;28;20036;-73
2022/08/22 15:51:14;;;;;;;11.10;6.57;;;28.90;99.90;;;;;;4203820;28;20044;-73
2022/08/22 15:53:51;;;;;;;11.48;6.72;;;28.90;99.90;;;;;;4140969;28;20583;-73
2022/08/22 15:56:19;;;;;;;10.95;5.93;;;28.90;99.90;;;;;;4205469;28;20124;-72
2022/08/22 15:58:28;;;;;;;10.73;6.25;;;28.90;99.90;;;;;;4206648;28;20047;-72
2022/08/22 16:00:43;;;;;;;10.45;6.63;;;28.90;99.90;;;;;;4204219;28;20177;-72
2022/08/22 16:03:19;;;;;;;9.85;5.95;;;28.90;99.90;;;;;;4207277;28;20740;-72
2022/08/22 16:05:51;;;;;;;9.38;6.15;;;28.80;99.90;;;;;;4206746;28;20044;-73
2022/08/22 16:08:07;;;;;;;11.18;6.57;;;28.80;99.90;;;;;;4207864;28;20508;-73
2022/08/22 16:10:34;;;;;;;11.35;6.38;;;28.90;99.90;;;;;;4207589;28;20048;-73
2022/08/22 16:12:44;;;;;;;13.73;6.30;;;28.80;99.90;;;;;;4208925;28;20823;-73
2022/08/22 16:14:49;;;;;;;8.85;5.80;;;28.80;99.90;;;;;;4210459;28;20036;-73
2022/08/22 16:17:03;;;;;;;8.77;5.70;;;28.80;99.90;;;;;;4206588;28;20123;-73
2022/08/22 16:19:17;;;;;;;10.73;6.65;;;28.80;99.90;;;;;;4208994;28;20085;-73
2022/08/22 16:22:01;;;;;;;12.60;6.50;;;28.90;99.90;;;;;;4208794;28;20067;-73
2022/08/22 16:24:26;;;;;;;10.68;6.53;;;28.80;99.90;;;;;;4209863;28;20048;-73
2022/08/22 16:26:39;;;;;;;10.35;6.60;;;28.80;99.90;;;;;;4201389;28;20098;-73
2022/08/22 16:29:23;;;;;;;11.68;6.90;;;28.90;99.90;;;;;;4206034;28;20048;-72
2022/08/22 16:31:37;;;;;;;12.80;6.18;;;28.80;99.90;;;;;;4204963;28;20131;-73
2022/08/22 16:33:43;;;;;;;10.00;6.10;;;28.80;99.90;;;;;;4209023;28;20547;-73
2022/08/22 16:36:12;;;;;;;10.57;6.18;;;28.80;99.90;;;;;;4206472;28;20082;-73
2022/08/22 16:38:32;;;;;;;13.13;6.28;;;28.80;99.90;;;;;;4208049;28;20410;-73
2022/08/22 16:40:47;;;;;;;12.15;6.47;;;28.80;99.90;;;;;;4208569;28;20048;-73
2022/08/22 16:43:15;;;;;;;8.07;5.80;;;28.80;99.90;;;;;;4207288;28;20497;-73
2022/08/22 16:45:33;;;;;;;10.98;6.72;;;28.80;99.90;;;;;;4207189;28;20047;-73
2022/08/22 16:47:46;;;;;;;12.52;6.18;;;28.80;99.90;;;;;;4188906;28;20064;-73
2022/08/22 16:50:32;;;;;;;11.50;6.53;;;28.70;99.90;;;;;;4208637;28;20044;-73
2022/08/22 16:52:49;;;;;;;13.70;6.63;;;28.80;99.90;;;;;;4207842;28;20633;-73
2022/08/22 16:55:18;;;;;;;11.43;6.57;;;28.70;99.90;;;;;;4183653;28;20107;-73
2022/08/22 16:57:36;;;;;;;11.60;6.28;;;28.80;99.90;;;;;;4208307;28;20557;-73
2022/08/22 16:59:56;;;;;;;13.82;6.57;;;28.80;99.90;;;;;;4208182;28;20036;-73
2022/08/22 17:02:35;;;;;;;11.43;6.50;;;28.80;99.90;;;;;;4208602;28;20095;-73
2022/08/22 17:04:54;;;;;;;9.00;6.50;;;28.70;99.90;;;;;;4208216;28;20051;-73
2022/08/22 17:07:18;;;;;;;11.73;6.63;;;28.80;99.90;;;;;;4205109;28;20074;-73
2022/08/22 17:09:49;;;;;;;11.38;6.47;;;28.70;99.90;;;;;;4224080;28;20133;-73
2022/08/22 17:12:21;;;;;;;10.50;6.45;;;28.70;99.90;;;;;;4204561;28;20040;-73
2022/08/22 17:14:46;;;;;;;10.93;6.30;;;28.70;99.90;;;;;;4208877;28;20632;-73
2022/08/22 17:17:16;;;;;;;11.55;6.18;;;28.70;99.90;;;;;;4204224;28;20109;-73
2022/08/22 17:19:59;;;;;;;11.45;5.68;;;28.70;99.90;;;;;;4207434;28;20433;-73
2022/08/22 17:22:46;;;;;;;10.00;5.72;;;28.60;99.90;;;;;;4207049;28;20056;-73
2022/08/22 17:25:15;;;;;;;8.25;5.88;;;28.60;99.90;;;;;;4207939;28;20040;-73
2022/08/22 17:27:37;;;;;;;12.20;6.43;;;28.60;99.90;;;;;;4207723;28;20048;-73
2022/08/22 17:30:05;;;;;;;14.02;6.22;;;28.60;99.90;;;;;;4223171;28;20482;-73
2022/08/22 17:32:24;;;;;;;12.90;6.25;;;28.60;99.90;;;;;;4207254;28;20044;-73
2022/08/22 17:35:07;;;;;;;9.60;6.63;;;28.60;99.90;;;;;;4206399;28;20235;-73
2022/08/22 17:37:29;;;;;;;8.82;6.45;;;28.60;99.90;;;;;;4207492;28;20052;-73
2022/08/22 17:39:56;;;;;;;8.63;5.97;;;28.50;99.90;;;;;;4207037;28;20131;-73
2022/08/22 17:42:37;;;;;;;8.18;6.03;;;28.50;99.90;;;;;;4205832;28;20474;-73
2022/08/22 17:45:07;;;;;;;10.38;6.13;;;28.50;99.90;;;;;;4208287;28;20054;-73
2022/08/22 17:47:20;;;;;;;12.95;6.70;;;28.50;99.90;;;;;;4206976;28;20040;-73
2022/08/22 17:49:50;;;;;;;11.35;5.75;;;28.50;99.90;;;;;;4207375;28;20135;-73
2022/08/22 17:52:22;;;;;;;9.80;6.05;;;28.50;99.90;;;;;;4206481;28;20071;-73
2022/08/22 17:54:45;;;;;;;9.63;5.72;;;28.50;99.90;;;;;;4207271;28;20047;-72
2022/08/22 17:57:03;;;;;;;10.07;6.38;;;28.40;99.90;;;;;;4223719;28;20074;-73
2022/08/22 17:59:27;;;;;;;9.15;6.20;;;28.40;99.90;;;;;;4208580;28;20040;-73
2022/08/22 18:02:04;;;;;;;12.35;6.35;;;28.40;99.90;;;;;;4203524;28;20444;-73
2022/08/22 18:04:25;;;;;;;12.20;6.03;;;28.40;99.90;;;;;;4208767;28;20040;-73
2022/08/22 18:06:36;;;;;;;10.13;6.65;;;28.40;99.90;;;;;;4203249;28;20869;-74
2022/08/22 18:09:04;;;;;;;13.45;6.80;;;28.40;99.90;;;;;;4207156;28;20139;-73
2022/08/22 18:11:28;;;;;;;10.52;6.80;;;28.50;99.90;;;;;;4221026;28;20744;-73
2022/08/22 18:13:58;;;;;;;11.85;6.82;;;28.50;99.90;;;;;;4208046;28;20514;-73
2022/08/22 18:16:32;;;;;;;9.77;6.82;;;28.50;99.90;;;;;;4206263;28;20048;-73
2022/08/22 18:18:45;;;;;;;13.02;8.07;;;28.40;99.90;;;;;;4205523;28;20060;-73
2022/08/22 18:20:59;;;;;;;13.27;7.03;;;28.40;99.90;;;;;;4207281;28;20081;-73
2022/08/22 18:23:26;;;;;;;13.45;7.35;;;28.40;99.90;;;;;;4208565;28;20382;-74
2022/08/22 18:26:06;;;;;;;12.90;7.00;;;28.40;99.90;;;;;;4208198;28;20052;-73